»·PEaware :: N329CC KSNA-KBUR

N329CC :: KSNA-KBUR

FLIGHT INFORMATION

Flight Status: Arrived
Operator: Privately registered:
United States
More flights under this callsign
Pilot: Skip B. (16331)
Aircraft: BEECH AIRCRAFT DEBONAIR BONANZA
(BE33)
More flights by this aircraft type
Origin: KSNA John Wayne-Orange Co
United States
Destination: KBUR Bob Hope-Burbank
United States
More flights between these airports :: More routes between these airports
Route: +SLI V23 POPPR SMO125 SMO SMO311 SILEX
File this flight plan on PilotEdge
Remarks: I-3
Altitude:
(Current/Filed)
4,000ft
Speed:
(Current/Filed)
150kts
Departed: 02-Dec-18 02:34 PM
Arrived: 02-Dec-18 03:03 PM
Distance/Time
Traveled:
0nm/0:28
Distance/Time
To Go:
Arrived

Flight Plot

Page will automatically refresh every two minutes.


Map Options




Map Legend


Flown Route
Filed Route
Departure Airport
Arrival Airport
Navaid (VOR, NDB)
Fix

Horizontal Profiles

Position Reports

Time Latitude Longitude Heading Altitude Ground
Speed
02-Dec-18 14:06 33.670664 -117.867996 215 60ft 0kts
02-Dec-18 14:07 33.670664 -117.867996 215 60ft 0kts
02-Dec-18 14:08 33.670664 -117.867996 215 60ft 0kts
02-Dec-18 14:09 33.670664 -117.867996 215 60ft 0kts
02-Dec-18 14:10 33.670664 -117.867996 215 60ft 0kts
02-Dec-18 14:11 33.670664 -117.867996 215 60ft 0kts
02-Dec-18 14:12 33.670664 -117.867996 215 60ft 0kts
02-Dec-18 14:13 33.670664 -117.867996 215 60ft 0kts
02-Dec-18 14:14 33.670664 -117.867996 215 60ft 0kts
02-Dec-18 14:15 33.670664 -117.867996 215 60ft 0kts
02-Dec-18 14:16 33.670664 -117.867996 215 60ft 0kts
02-Dec-18 14:17 33.670664 -117.867996 215 60ft 0kts
02-Dec-18 14:18 33.670664 -117.867996 215 60ft 0kts
02-Dec-18 14:19 33.670664 -117.867996 215 60ft 0kts
02-Dec-18 14:20 33.670664 -117.867996 215 60ft 0kts
02-Dec-18 14:21 33.670664 -117.867996 215 60ft 0kts
02-Dec-18 14:22 33.670664 -117.867996 215 60ft 0kts
02-Dec-18 14:23 33.670664 -117.867996 215 60ft 0kts
02-Dec-18 14:24 33.670664 -117.867996 215 60ft 0kts
02-Dec-18 14:25 33.670664 -117.867996 215 60ft 0kts
02-Dec-18 14:26 33.670664 -117.867996 215 60ft 0kts
02-Dec-18 14:27 33.670664 -117.867996 215 60ft 0kts
02-Dec-18 14:28 33.670664 -117.867996 215 60ft 0kts
02-Dec-18 14:29 33.670663 -117.868210 310 60ft 4kts
02-Dec-18 14:30 33.670825 -117.868443 308 60ft 0kts
02-Dec-18 14:31 33.670825 -117.868443 308 60ft 0kts
02-Dec-18 14:32 33.672765 -117.867659 40 60ft 19kts
02-Dec-18 14:33 33.678029 -117.864586 27 60ft 24kts
02-Dec-18 14:34 33.679944 -117.863578 302 60ft 0kts
02-Dec-18 14:35 33.679943 -117.863578 302 60ft 0kts
02-Dec-18 14:36 33.679943 -117.863578 302 60ft 0kts
02-Dec-18 14:37 33.672447 -117.868737 206 291ft 82kts
02-Dec-18 14:38 33.654404 -117.889643 232 1423ft 106kts
02-Dec-18 14:39 33.633557 -117.920201 229 2007ft 142kts
02-Dec-18 14:40 33.612226 -117.961784 285 2068ft 150kts
02-Dec-18 14:41 33.631042 -117.999200 300 3030ft 119kts
02-Dec-18 14:42 33.647393 -118.030870 298 3964ft 107kts
02-Dec-18 14:43 33.666568 -118.067622 307 3995ft 147kts
02-Dec-18 14:44 33.694330 -118.105678 313 3993ft 153kts
02-Dec-18 14:45 33.724692 -118.141776 314 3993ft 154kts
02-Dec-18 14:46 33.755894 -118.176988 314 3994ft 154kts
02-Dec-18 14:47 33.786690 -118.211142 314 3995ft 154kts
02-Dec-18 14:48 33.817868 -118.248126 312 3996ft 154kts
02-Dec-18 14:49 33.848969 -118.283909 313 3997ft 155kts
02-Dec-18 14:50 33.880900 -118.318803 314 3999ft 156kts
02-Dec-18 14:51 33.913016 -118.353454 315 3999ft 156kts
02-Dec-18 14:52 33.945563 -118.388254 317 3998ft 156kts
02-Dec-18 14:53 33.978073 -118.422839 318 3997ft 156kts
02-Dec-18 14:54 34.010650 -118.457482 320 3996ft 157kts
02-Dec-18 14:55 34.046595 -118.488287 325 3997ft 159kts
02-Dec-18 14:56 34.081050 -118.517747 325 3998ft 160kts
02-Dec-18 14:57 34.118722 -118.550000 325 4001ft 162kts
02-Dec-18 14:58 34.156004 -118.581971 325 4004ft 164kts
02-Dec-18 14:59 34.192614 -118.601038 32 3998ft 154kts
02-Dec-18 15:00 34.201268 -118.553611 93 4023ft 150kts
02-Dec-18 15:01 34.199481 -118.505734 88 3098ft 134kts
02-Dec-18 15:02 34.199375 -118.465012 89 2449ft 113kts
02-Dec-18 15:03 34.198449 -118.426576 88 1734ft 110kts
02-Dec-18 15:04 34.198156 -118.390741 89 1173ft 105kts
02-Dec-18 15:05 34.197811 -118.361940 93 781ft 45kts
02-Dec-18 15:06 34.198633 -118.360401 354 781ft 0kts
02-Dec-18 15:07 34.199238 -118.360239 6 781ft 9kts
02-Dec-18 15:08 34.200033 -118.359565 357 781ft 0kts
02-Dec-18 15:09 34.200033 -118.359565 357 781ft 0kts
02-Dec-18 15:10 34.200033 -118.359565 357 781ft 0kts
02-Dec-18 15:11 34.200033 -118.359565 357 781ft 0kts
02-Dec-18 15:12 34.200033 -118.359565 357 781ft 0kts
02-Dec-18 15:13 34.200033 -118.359565 357 781ft 0kts
02-Dec-18 15:15 33.670664 -117.867996 215 60ft 0kts
02-Dec-18 15:16 33.670664 -117.867996 215 60ft 0kts
02-Dec-18 15:17 33.670664 -117.867996 215 60ft 0kts
02-Dec-18 15:18 33.670664 -117.867996 215 60ft 0kts
02-Dec-18 15:19 33.670664 -117.867996 215 60ft 0kts
02-Dec-18 15:20 33.670664 -117.867996 215 60ft 0kts

Navigation Log

Ident Type
Flight plan parsing failed, navigation log unavailable